Terminal Aerodrome Forecast
Issued by NWS Caribou, ME

Home | Current Version | Previous Version | Text Only | Print | Product List | Glossary On
Versions: 1 2 3 4 5 6 7 8 9 10 11 12 13 14 15 16 17 18 19 20 21 22
000
FTUS41 KCAR 250737 AAA
TAFBGR
TAF AMD
KBGR 250737Z 2508/2606 00000KT 1SM BR OVC002
     FM250900 00000KT 2SM BR OVC003
     FM251200 00000KT P6SM BKN003
     FM251500 21005KT P6SM OVC015
     FM251700 20006KT P6SM BKN250
     FM260500 VRB03KT P6SM BKN003=

USA.gov is the U.S. government's official web portal to all federal, state and local government web resources and services.